sensor_id;sensor_type;location;lat;lon;timestamp;pressure;altitude;pressure_sealevel;temperature;humidity
21781;BME280;52576;53.614;9.894;2023-05-25T00:00:02;102240.84;;;9.41;81.47
21781;BME280;52576;53.614;9.894;2023-05-25T00:02:06;102241.81;;;9.39;81.58
21781;BME280;52576;53.614;9.894;2023-05-25T00:04:11;102238.41;;;9.37;81.59
21781;BME280;52576;53.614;9.894;2023-05-25T00:06:18;102245.50;;;9.35;81.64
21781;BME280;52576;53.614;9.894;2023-05-25T00:08:23;102244.69;;;9.33;81.85
21781;BME280;52576;53.614;9.894;2023-05-25T00:10:26;102243.00;;;9.32;81.94
21781;BME280;52576;53.614;9.894;2023-05-25T00:12:29;102249.13;;;9.31;81.93
21781;BME280;52576;53.614;9.894;2023-05-25T00:14:33;102251.81;;;9.29;81.98
21781;BME280;52576;53.614;9.894;2023-05-25T00:16:36;102248.41;;;9.27;82.04
21781;BME280;52576;53.614;9.894;2023-05-25T00:18:42;102251.13;;;9.24;82.02
21781;BME280;52576;53.614;9.894;2023-05-25T00:20:46;102254.72;;;9.22;82.24
21781;BME280;52576;53.614;9.894;2023-05-25T00:22:50;102246.91;;;9.20;82.19
21781;BME280;52576;53.614;9.894;2023-05-25T00:24:57;102242.66;;;9.17;82.36
21781;BME280;52576;53.614;9.894;2023-05-25T00:27:00;102238.31;;;9.16;82.59
21781;BME280;52576;53.614;9.894;2023-05-25T00:29:04;102242.75;;;9.14;82.79
21781;BME280;52576;53.614;9.894;2023-05-25T00:31:08;102240.16;;;9.14;82.85
21781;BME280;52576;53.614;9.894;2023-05-25T00:33:11;102238.38;;;9.15;83.00
21781;BME280;52576;53.614;9.894;2023-05-25T00:35:15;102237.53;;;9.14;82.94
21781;BME280;52576;53.614;9.894;2023-05-25T00:37:20;102238.38;;;9.15;83.01
21781;BME280;52576;53.614;9.894;2023-05-25T00:39:24;102241.91;;;9.14;83.03
21781;BME280;52576;53.614;9.894;2023-05-25T00:41:27;102240.19;;;9.13;83.01
21781;BME280;52576;53.614;9.894;2023-05-25T00:43:32;102242.88;;;9.11;83.11
21781;BME280;52576;53.614;9.894;2023-05-25T00:45:36;102235.03;;;9.11;83.17
21781;BME280;52576;53.614;9.894;2023-05-25T00:47:39;102247.25;;;9.11;83.33
21781;BME280;52576;53.614;9.894;2023-05-25T00:49:43;102240.31;;;9.10;83.41
21781;BME280;52576;53.614;9.894;2023-05-25T00:51:47;102246.41;;;9.10;83.35
21781;BME280;52576;53.614;9.894;2023-05-25T00:53:52;102236.88;;;9.09;83.36
21781;BME280;52576;53.614;9.894;2023-05-25T00:56:01;102241.31;;;9.07;83.42
21781;BME280;52576;53.614;9.894;2023-05-25T00:58:07;102243.00;;;9.08;83.40
21781;BME280;52576;53.614;9.894;2023-05-25T01:00:12;102239.59;;;9.06;83.54
21781;BME280;52576;53.614;9.894;2023-05-25T01:02:18;102236.19;;;9.04;83.50
21781;BME280;52576;53.614;9.894;2023-05-25T01:04:22;102252.84;;;9.02;83.58
21781;BME280;52576;53.614;9.894;2023-05-25T01:06:29;102238.09;;;8.99;83.66
21781;BME280;52576;53.614;9.894;2023-05-25T01:08:34;102241.63;;;8.98;83.60
21781;BME280;52576;53.614;9.894;2023-05-25T01:10:41;102245.25;;;8.94;83.63
21781;BME280;52576;53.614;9.894;2023-05-25T01:12:45;102241.84;;;8.92;83.78
21781;BME280;52576;53.614;9.894;2023-05-25T01:14:49;102244.53;;;8.91;83.93
21781;BME280;52576;53.614;9.894;2023-05-25T01:16:54;102241.97;;;8.89;84.06
21781;BME280;52576;53.614;9.894;2023-05-25T01:18:59;102238.53;;;8.87;84.18
21781;BME280;52576;53.614;9.894;2023-05-25T01:21:08;102244.69;;;8.86;84.17
21781;BME280;52576;53.614;9.894;2023-05-25T01:23:15;102245.59;;;8.85;84.16
21781;BME280;52576;53.614;9.894;2023-05-25T01:25:26;102248.25;;;8.83;84.33
21781;BME280;52576;53.614;9.894;2023-05-25T01:27:35;102250.97;;;8.82;84.29
21781;BME280;52576;53.614;9.894;2023-05-25T01:29:43;102259.72;;;8.81;84.39
21781;BME280;52576;53.614;9.894;2023-05-25T01:31:47;102252.78;;;8.80;84.41
21781;BME280;52576;53.614;9.894;2023-05-25T01:33:52;102249.34;;;8.78;84.35
21781;BME280;52576;53.614;9.894;2023-05-25T01:35:56;102243.31;;;8.76;84.32
21781;BME280;52576;53.614;9.894;2023-05-25T01:38:01;102252.97;;;8.74;84.57
21781;BME280;52576;53.614;9.894;2023-05-25T01:40:07;102249.56;;;8.72;84.63
21781;BME280;52576;53.614;9.894;2023-05-25T01:42:11;102252.22;;;8.70;84.66
21781;BME280;52576;53.614;9.894;2023-05-25T01:44:14;102254.91;;;8.69;84.95
21781;BME280;52576;53.614;9.894;2023-05-25T01:46:23;102250.56;;;8.68;84.91
21781;BME280;52576;53.614;9.894;2023-05-25T01:48:39;102251.47;;;8.67;84.90
21781;BME280;52576;53.614;9.894;2023-05-25T01:50:52;102247.22;;;8.64;84.99
21781;BME280;52576;53.614;9.894;2023-05-25T01:53:03;102249.88;;;8.63;85.02
21781;BME280;52576;53.614;9.894;2023-05-25T01:55:09;102246.47;;;8.61;85.04
21781;BME280;52576;53.614;9.894;2023-05-25T01:57:14;102244.91;;;8.57;85.08
21781;BME280;52576;53.614;9.894;2023-05-25T01:59:21;102240.63;;;8.54;85.25
21781;BME280;52576;53.614;9.894;2023-05-25T02:01:26;102238.06;;;8.53;85.27
21781;BME280;52576;53.614;9.894;2023-05-25T02:03:30;102238.13;;;8.51;85.34
21781;BME280;52576;53.614;9.894;2023-05-25T02:05:33;102236.47;;;8.48;85.44
21781;BME280;52576;53.614;9.894;2023-05-25T02:07:39;102238.25;;;8.46;85.49
21781;BME280;52576;53.614;9.894;2023-05-25T02:09:44;102240.94;;;8.45;85.55
21781;BME280;52576;53.614;9.894;2023-05-25T02:11:47;102243.59;;;8.43;85.57
21781;BME280;52576;53.614;9.894;2023-05-25T02:13:51;102245.41;;;8.41;85.59
21781;BME280;52576;53.614;9.894;2023-05-25T02:15:54;102243.69;;;8.40;85.77
21781;BME280;52576;53.614;9.894;2023-05-25T02:17:58;102235.06;;;8.38;85.80
21781;BME280;52576;53.614;9.894;2023-05-25T02:20:05;102236.00;;;8.36;86.02
21781;BME280;52576;53.614;9.894;2023-05-25T02:22:09;102238.66;;;8.34;86.01
21781;BME280;52576;53.614;9.894;2023-05-25T02:24:12;102236.97;;;8.33;86.16
21781;BME280;52576;53.614;9.894;2023-05-25T02:26:17;102243.09;;;8.32;86.15
21781;BME280;52576;53.614;9.894;2023-05-25T02:28:20;102239.59;;;8.32;86.34
21781;BME280;52576;53.614;9.894;2023-05-25T02:30:24;102244.00;;;8.31;86.32
21781;BME280;52576;53.614;9.894;2023-05-25T02:32:30;102247.50;;;8.30;86.53
21781;BME280;52576;53.614;9.894;2023-05-25T02:34:36;102252.78;;;8.29;86.54
21781;BME280;52576;53.614;9.894;2023-05-25T02:36:40;102243.25;;;8.28;86.51
21781;BME280;52576;53.614;9.894;2023-05-25T02:38:44;102245.91;;;8.26;86.55
21781;BME280;52576;53.614;9.894;2023-05-25T02:40:51;102249.41;;;8.25;86.59
21781;BME280;52576;53.614;9.894;2023-05-25T02:42:56;102246.00;;;8.23;86.58
21781;BME280;52576;53.614;9.894;2023-05-25T02:45:00;102246.00;;;8.23;86.78
21781;BME280;52576;53.614;9.894;2023-05-25T02:47:04;102251.31;;;8.20;86.69
21781;BME280;52576;53.614;9.894;2023-05-25T02:49:08;102249.63;;;8.19;86.77
21781;BME280;52576;53.614;9.894;2023-05-25T02:51:12;102254.03;;;8.17;86.78
21781;BME280;52576;53.614;9.894;2023-05-25T02:53:15;102259.25;;;8.17;86.98
21781;BME280;52576;53.614;9.894;2023-05-25T02:55:19;102258.47;;;8.15;87.09
21781;BME280;52576;53.614;9.894;2023-05-25T02:57:22;102258.47;;;8.15;87.08
21781;BME280;52576;53.614;9.894;2023-05-25T02:59:27;102261.97;;;8.14;87.05
21781;BME280;52576;53.614;9.894;2023-05-25T03:01:30;102262.88;;;8.13;87.20
21781;BME280;52576;53.614;9.894;2023-05-25T03:03:36;102265.47;;;8.13;87.17
21781;BME280;52576;53.614;9.894;2023-05-25T03:05:39;102265.44;;;8.14;87.20
21781;BME280;52576;53.614;9.894;2023-05-25T03:07:43;102268.03;;;8.14;87.25
21781;BME280;52576;53.614;9.894;2023-05-25T03:09:47;102267.09;;;8.17;87.33
21781;BME280;52576;53.614;9.894;2023-05-25T03:11:50;102266.19;;;8.18;87.48
21781;BME280;52576;53.614;9.894;2023-05-25T03:13:55;102275.75;;;8.19;87.46
21781;BME280;52576;53.614;9.894;2023-05-25T03:15:59;102269.56;;;8.22;87.66
21781;BME280;52576;53.614;9.894;2023-05-25T03:18:03;102275.63;;;8.22;87.65
21781;BME280;52576;53.614;9.894;2023-05-25T03:20:11;102274.75;;;8.23;87.73
21781;BME280;52576;53.614;9.894;2023-05-25T03:22:20;102275.63;;;8.22;87.71
21781;BME280;52576;53.614;9.894;2023-05-25T03:24:23;102278.25;;;8.22;87.68
21781;BME280;52576;53.614;9.894;2023-05-25T03:26:29;102283.47;;;8.22;87.52
21781;BME280;52576;53.614;9.894;2023-05-25T03:28:34;102283.56;;;8.19;87.67
21781;BME280;52576;53.614;9.894;2023-05-25T03:30:38;102287.91;;;8.20;87.77
21781;BME280;52576;53.614;9.894;2023-05-25T03:32:44;102286.19;;;8.19;87.75
21781;BME280;52576;53.614;9.894;2023-05-25T03:34:47;102290.56;;;8.18;87.84
21781;BME280;52576;53.614;9.894;2023-05-25T03:36:52;102282.72;;;8.18;87.75
21781;BME280;52576;53.614;9.894;2023-05-25T03:38:56;102287.09;;;8.18;87.80
21781;BME280;52576;53.614;9.894;2023-05-25T03:40:59;102288.00;;;8.17;87.86
21781;BME280;52576;53.614;9.894;2023-05-25T03:43:03;102288.00;;;8.17;87.89
21781;BME280;52576;53.614;9.894;2023-05-25T03:45:07;102287.09;;;8.18;87.97
21781;BME280;52576;53.614;9.894;2023-05-25T03:47:11;102291.41;;;8.19;87.96
21781;BME280;52576;53.614;9.894;2023-05-25T03:49:16;102294.81;;;8.21;87.85
21781;BME280;52576;53.614;9.894;2023-05-25T03:51:19;102295.59;;;8.25;87.93
21781;BME280;52576;53.614;9.894;2023-05-25T03:53:23;102302.41;;;8.29;88.00
21781;BME280;52576;53.614;9.894;2023-05-25T03:55:26;102303.97;;;8.34;88.08
21781;BME280;52576;53.614;9.894;2023-05-25T03:57:30;102297.75;;;8.38;88.04
21781;BME280;52576;53.614;9.894;2023-05-25T03:59:33;102301.06;;;8.43;88.21
21781;BME280;52576;53.614;9.894;2023-05-25T04:01:37;102309.63;;;8.48;88.21
21781;BME280;52576;53.614;9.894;2023-05-25T04:03:40;102308.56;;;8.54;88.22
21781;BME280;52576;53.614;9.894;2023-05-25T04:05:45;102321.44;;;8.59;88.32
21781;BME280;52576;53.614;9.894;2023-05-25T04:07:49;102319.53;;;8.64;88.36
21781;BME280;52576;53.614;9.894;2023-05-25T04:09:53;102324.63;;;8.68;88.24
21781;BME280;52576;53.614;9.894;2023-05-25T04:11:56;102312.31;;;8.72;88.36
21781;BME280;52576;53.614;9.894;2023-05-25T04:13:59;102318.28;;;8.75;88.34
21781;BME280;52576;53.614;9.894;2023-05-25T04:16:06;102321.66;;;8.79;88.19
21781;BME280;52576;53.614;9.894;2023-05-25T04:18:11;102315.41;;;8.83;88.07
21781;BME280;52576;53.614;9.894;2023-05-25T04:20:15;102310.91;;;8.87;88.01
21781;BME280;52576;53.614;9.894;2023-05-25T04:22:20;102321.19;;;8.91;87.78
21781;BME280;52576;53.614;9.894;2023-05-25T04:24:23;102318.38;;;8.97;87.81
21781;BME280;52576;53.614;9.894;2023-05-25T04:26:27;102323.41;;;9.03;87.66
21781;BME280;52576;53.614;9.894;2023-05-25T04:28:31;102325.00;;;9.07;87.56
21781;BME280;52576;53.614;9.894;2023-05-25T04:30:57;102322.94;;;9.15;87.38
21781;BME280;52576;53.614;9.894;2023-05-25T04:33:24;102332.22;;;9.24;87.36
21781;BME280;52576;53.614;9.894;2023-05-25T04:35:46;102331.91;;;9.33;87.11
21781;BME280;52576;53.614;9.894;2023-05-25T04:37:53;102328.19;;;9.39;87.00
21781;BME280;52576;53.614;9.894;2023-05-25T04:39:58;102334.09;;;9.44;86.75
21781;BME280;52576;53.614;9.894;2023-05-25T04:42:03;102330.47;;;9.48;86.39
21781;BME280;52576;53.614;9.894;2023-05-25T04:44:08;102336.50;;;9.50;86.13
21781;BME280;52576;53.614;9.894;2023-05-25T04:46:19;102328.66;;;9.50;85.88
21781;BME280;52576;53.614;9.894;2023-05-25T04:48:23;102334.75;;;9.50;85.80
21781;BME280;52576;53.614;9.894;2023-05-25T04:50:26;102331.22;;;9.51;85.73
21781;BME280;52576;53.614;9.894;2023-05-25T04:52:30;102337.19;;;9.55;85.49
21781;BME280;52576;53.614;9.894;2023-05-25T04:54:34;102338.91;;;9.56;85.64
21781;BME280;52576;53.614;9.894;2023-05-25T04:56:38;102338.78;;;9.59;85.07
21781;BME280;52576;53.614;9.894;2023-05-25T04:58:42;102338.63;;;9.62;85.06
21781;BME280;52576;53.614;9.894;2023-05-25T05:00:46;102339.44;;;9.64;84.94
21781;BME280;52576;53.614;9.894;2023-05-25T05:02:52;102336.72;;;9.67;84.76
21781;BME280;52576;53.614;9.894;2023-05-25T05:04:57;102340.13;;;9.69;84.58
21781;BME280;52576;53.614;9.894;2023-05-25T05:07:01;102343.53;;;9.71;84.54
21781;BME280;52576;53.614;9.894;2023-05-25T05:09:05;102346.03;;;9.74;84.36
21781;BME280;52576;53.614;9.894;2023-05-25T05:11:10;102338.06;;;9.77;84.48
21781;BME280;52576;53.614;9.894;2023-05-25T05:13:13;102344.06;;;9.81;84.41
21781;BME280;52576;53.614;9.894;2023-05-25T05:15:17;102347.41;;;9.84;84.33
21781;BME280;52576;53.614;9.894;2023-05-25T05:17:23;102344.66;;;9.87;84.06
21781;BME280;52576;53.614;9.894;2023-05-25T05:19:27;102349.75;;;9.91;84.09
21781;BME280;52576;53.614;9.894;2023-05-25T05:21:30;102350.56;;;9.93;83.90
21781;BME280;52576;53.614;9.894;2023-05-25T05:23:36;102354.84;;;9.95;83.70
21781;BME280;52576;53.614;9.894;2023-05-25T05:25:39;102360.00;;;9.97;83.73
21781;BME280;52576;53.614;9.894;2023-05-25T05:27:45;102360.75;;;10.00;83.66
21781;BME280;52576;53.614;9.894;2023-05-25T05:29:57;102364.09;;;10.04;83.59
21781;BME280;52576;53.614;9.894;2023-05-25T05:32:00;102364.78;;;10.09;83.41
21781;BME280;52576;53.614;9.894;2023-05-25T05:34:06;102355.91;;;10.13;83.23
21781;BME280;52576;53.614;9.894;2023-05-25T05:36:09;102357.44;;;10.17;83.00
21781;BME280;52576;53.614;9.894;2023-05-25T05:38:13;102356.44;;;10.21;82.81
21781;BME280;52576;53.614;9.894;2023-05-25T05:40:17;102357.13;;;10.26;82.64
21781;BME280;52576;53.614;9.894;2023-05-25T05:42:21;102358.72;;;10.30;82.60
21781;BME280;52576;53.614;9.894;2023-05-25T05:44:25;102363.72;;;10.36;82.45
21781;BME280;52576;53.614;9.894;2023-05-25T05:46:31;102360.88;;;10.41;82.17
21781;BME280;52576;53.614;9.894;2023-05-25T05:48:35;102366.72;;;10.47;81.96
21781;BME280;52576;53.614;9.894;2023-05-25T05:50:38;102365.63;;;10.53;81.78
21781;BME280;52576;53.614;9.894;2023-05-25T05:52:45;102367.94;;;10.61;81.78
21781;BME280;52576;53.614;9.894;2023-05-25T05:54:49;102365.97;;;10.66;81.20
21781;BME280;52576;53.614;9.894;2023-05-25T05:56:52;102373.72;;;10.69;81.00
21781;BME280;52576;53.614;9.894;2023-05-25T05:58:56;102372.59;;;10.74;80.91
21781;BME280;52576;53.614;9.894;2023-05-25T06:01:00;102376.75;;;10.80;80.72
21781;BME280;52576;53.614;9.894;2023-05-25T06:03:05;102374.72;;;10.86;80.30
21781;BME280;52576;53.614;9.894;2023-05-25T06:05:09;102367.47;;;10.92;79.74
21781;BME280;52576;53.614;9.894;2023-05-25T06:07:14;102373.47;;;10.95;79.36
21781;BME280;52576;53.614;9.894;2023-05-25T06:09:18;102368.09;;;10.98;79.31
21781;BME280;52576;53.614;9.894;2023-05-25T06:11:21;102367.03;;;11.02;78.72
21781;BME280;52576;53.614;9.894;2023-05-25T06:13:25;102371.09;;;11.09;78.58
21781;BME280;52576;53.614;9.894;2023-05-25T06:15:28;102370.13;;;11.12;78.52
21781;BME280;52576;53.614;9.894;2023-05-25T06:17:35;102360.19;;;11.18;78.27
21781;BME280;52576;53.614;9.894;2023-05-25T06:19:39;102371.22;;;11.27;78.07
21781;BME280;52576;53.614;9.894;2023-05-25T06:21:42;102372.53;;;11.37;77.68
21781;BME280;52576;53.614;9.894;2023-05-25T06:23:46;102373.16;;;11.42;76.94
21781;BME280;52576;53.614;9.894;2023-05-25T06:25:51;102373.78;;;11.47;76.08
21781;BME280;52576;53.614;9.894;2023-05-25T06:27:56;102369.31;;;11.49;75.62
21781;BME280;52576;53.614;9.894;2023-05-25T06:30:00;102374.56;;;11.49;75.12
21781;BME280;52576;53.614;9.894;2023-05-25T06:32:05;102371.81;;;11.52;74.99
21781;BME280;52576;53.614;9.894;2023-05-25T06:34:13;102374.16;;;11.58;74.42
21781;BME280;52576;53.614;9.894;2023-05-25T06:36:16;102379.16;;;11.64;74.06
21781;BME280;52576;53.614;9.894;2023-05-25T06:38:20;102385.81;;;11.71;73.71
21781;BME280;52576;53.614;9.894;2023-05-25T06:40:24;102392.38;;;11.81;73.50
21781;BME280;52576;53.614;9.894;2023-05-25T06:42:28;102374.50;;;11.89;73.03
21781;BME280;52576;53.614;9.894;2023-05-25T06:44:31;102382.84;;;11.98;72.45
21781;BME280;52576;53.614;9.894;2023-05-25T06:46:36;102380.78;;;12.04;71.47
21781;BME280;52576;53.614;9.894;2023-05-25T06:48:40;102384.00;;;12.11;71.05
21781;BME280;52576;53.614;9.894;2023-05-25T06:50:45;102389.81;;;12.17;70.81
21781;BME280;52576;53.614;9.894;2023-05-25T06:52:48;102391.13;;;12.26;70.49
21781;BME280;52576;53.614;9.894;2023-05-25T06:54:52;102392.47;;;12.35;70.39
21781;BME280;52576;53.614;9.894;2023-05-25T06:56:55;102386.94;;;12.41;69.83
21781;BME280;52576;53.614;9.894;2023-05-25T06:58:59;102392.72;;;12.47;69.41
21781;BME280;52576;53.614;9.894;2023-05-25T07:01:02;102383.75;;;12.51;69.24
21781;BME280;52576;53.614;9.894;2023-05-25T07:03:06;102381.75;;;12.56;68.85
21781;BME280;52576;53.614;9.894;2023-05-25T07:05:09;102386.72;;;12.63;68.36
21781;BME280;52576;53.614;9.894;2023-05-25T07:07:14;102399.09;;;12.61;67.40
21781;BME280;52576;53.614;9.894;2023-05-25T07:09:18;102390.56;;;12.55;67.42
21781;BME280;52576;53.614;9.894;2023-05-25T07:11:22;102398.75;;;12.49;67.54
21781;BME280;52576;53.614;9.894;2023-05-25T07:13:25;102392.72;;;12.47;67.54
21781;BME280;52576;53.614;9.894;2023-05-25T07:15:29;102389.34;;;12.45;67.37
21781;BME280;52576;53.614;9.894;2023-05-25T07:17:32;102385.94;;;12.43;67.64
21781;BME280;52576;53.614;9.894;2023-05-25T07:19:37;102388.47;;;12.45;67.41
21781;BME280;52576;53.614;9.894;2023-05-25T07:21:41;102392.72;;;12.47;67.31
21781;BME280;52576;53.614;9.894;2023-05-25T07:23:45;102384.75;;;12.49;67.32
21781;BME280;52576;53.614;9.894;2023-05-25T07:25:49;102392.28;;;12.56;67.04
21781;BME280;52576;53.614;9.894;2023-05-25T07:27:52;102393.53;;;12.67;66.81
21781;BME280;52576;53.614;9.894;2023-05-25T07:29:56;102394.75;;;12.77;66.80
21781;BME280;52576;53.614;9.894;2023-05-25T07:31:59;102394.16;;;12.89;66.72
21781;BME280;52576;53.614;9.894;2023-05-25T07:34:02;102399.69;;;13.00;66.15
21781;BME280;52576;53.614;9.894;2023-05-25T07:36:06;102391.41;;;13.08;65.27
21781;BME280;52576;53.614;9.894;2023-05-25T07:38:10;102390.19;;;13.15;64.98
21781;BME280;52576;53.614;9.894;2023-05-25T07:40:15;102401.13;;;13.24;64.79
21781;BME280;52576;53.614;9.894;2023-05-25T07:42:18;102395.19;;;13.37;64.31
21781;BME280;52576;53.614;9.894;2023-05-25T07:44:22;102399.66;;;13.52;64.09
21781;BME280;52576;53.614;9.894;2023-05-25T07:46:26;102395.28;;;13.68;63.49
21781;BME280;52576;53.614;9.894;2023-05-25T07:48:29;102403.09;;;13.85;62.99
21781;BME280;52576;53.614;9.894;2023-05-25T07:50:32;102407.72;;;13.98;62.28
21781;BME280;52576;53.614;9.894;2023-05-25T07:52:36;102403.78;;;14.05;61.92
21781;BME280;52576;53.614;9.894;2023-05-25T07:54:40;102403.38;;;14.12;61.26
21781;BME280;52576;53.614;9.894;2023-05-25T07:56:44;102407.72;;;14.13;60.71
21781;BME280;52576;53.614;9.894;2023-05-25T07:58:48;102412.47;;;14.07;60.49
21781;BME280;52576;53.614;9.894;2023-05-25T08:00:51;102414.00;;;13.95;59.70
21781;BME280;52576;53.614;9.894;2023-05-25T08:02:55;102410.69;;;13.91;59.82
21781;BME280;52576;53.614;9.894;2023-05-25T08:04:58;102406.88;;;13.97;59.54
21781;BME280;52576;53.614;9.894;2023-05-25T08:07:06;102412.53;;;14.05;60.20
21781;BME280;52576;53.614;9.894;2023-05-25T08:09:09;102416.22;;;14.18;60.29
21781;BME280;52576;53.614;9.894;2023-05-25T08:11:14;102417.13;;;14.33;59.67
21781;BME280;52576;53.614;9.894;2023-05-25T08:13:19;102412.16;;;14.44;58.77
21781;BME280;52576;53.614;9.894;2023-05-25T08:15:22;102417.56;;;14.57;58.92
21781;BME280;52576;53.614;9.894;2023-05-25T08:17:27;102429.19;;;14.69;58.10
21781;BME280;52576;53.614;9.894;2023-05-25T08:19:31;102420.75;;;14.78;57.45
21781;BME280;52576;53.614;9.894;2023-05-25T08:21:34;102427.88;;;14.91;57.42
21781;BME280;52576;53.614;9.894;2023-05-25T08:23:39;102423.47;;;15.06;56.86
21781;BME280;52576;53.614;9.894;2023-05-25T08:25:43;102428.97;;;15.17;56.28
21781;BME280;52576;53.614;9.894;2023-05-25T08:27:47;102429.81;;;15.18;56.38
21781;BME280;52576;53.614;9.894;2023-05-25T08:29:52;102428.00;;;15.18;56.14
21781;BME280;52576;53.614;9.894;2023-05-25T08:31:55;102429.63;;;15.21;56.09
21781;BME280;52576;53.614;9.894;2023-05-25T08:33:59;102428.59;;;15.23;55.59
21781;BME280;52576;53.614;9.894;2023-05-25T08:36:02;102419.72;;;15.24;55.57
21781;BME280;52576;53.614;9.894;2023-05-25T08:38:06;102421.25;;;15.28;54.87
21781;BME280;52576;53.614;9.894;2023-05-25T08:40:13;102422.56;;;15.36;54.95
21781;BME280;52576;53.614;9.894;2023-05-25T08:42:17;102420.31;;;15.44;55.04
21781;BME280;52576;53.614;9.894;2023-05-25T08:44:21;102418.06;;;15.52;54.57
21781;BME280;52576;53.614;9.894;2023-05-25T08:46:29;102428.28;;;15.58;54.28
21781;BME280;52576;53.614;9.894;2023-05-25T08:48:34;102424.47;;;15.62;54.22
21781;BME280;52576;53.614;9.894;2023-05-25T08:50:43;102438.47;;;15.64;53.85
21781;BME280;52576;53.614;9.894;2023-05-25T08:52:48;102433.34;;;15.61;53.83
21781;BME280;52576;53.614;9.894;2023-05-25T08:54:54;102425.97;;;15.52;54.11
21781;BME280;52576;53.614;9.894;2023-05-25T08:57:07;102434.47;;;15.43;54.27
21781;BME280;52576;53.614;9.894;2023-05-25T08:59:21;102427.84;;;15.36;54.03
21781;BME280;52576;53.614;9.894;2023-05-25T09:01:32;102437.47;;;15.37;54.58
21781;BME280;52576;53.614;9.894;2023-05-25T09:03:40;102434.28;;;15.46;54.53
21781;BME280;52576;53.614;9.894;2023-05-25T09:05:45;102428.06;;;15.61;54.07
21781;BME280;52576;53.614;9.894;2023-05-25T09:07:49;102441.31;;;15.75;54.33
21781;BME280;52576;53.614;9.894;2023-05-25T09:09:56;102443.47;;;15.83;53.20
21781;BME280;52576;53.614;9.894;2023-05-25T09:11:59;102443.56;;;15.81;53.15
21781;BME280;52576;53.614;9.894;2023-05-25T09:14:04;102440.94;;;15.81;52.96
21781;BME280;52576;53.614;9.894;2023-05-25T09:16:07;102441.69;;;15.83;52.66
21781;BME280;52576;53.614;9.894;2023-05-25T09:18:13;102440.50;;;15.87;52.26
21781;BME280;52576;53.614;9.894;2023-05-25T09:20:17;102448.81;;;15.95;52.70
21781;BME280;52576;53.614;9.894;2023-05-25T09:22:21;102456.94;;;16.07;52.97
21781;BME280;52576;53.614;9.894;2023-05-25T09:24:25;102458.25;;;16.14;51.94
21781;BME280;52576;53.614;9.894;2023-05-25T09:26:28;102452.50;;;16.07;51.54
21781;BME280;52576;53.614;9.894;2023-05-25T09:28:32;102459.88;;;16.02;50.87
21781;BME280;52576;53.614;9.894;2023-05-25T09:30:35;102462.63;;;16.01;51.04
21781;BME280;52576;53.614;9.894;2023-05-25T09:32:39;102462.16;;;16.08;51.13
21781;BME280;52576;53.614;9.894;2023-05-25T09:34:44;102459.56;;;16.21;51.43
21781;BME280;52576;53.614;9.894;2023-05-25T09:36:48;102457.28;;;16.29;51.53
21781;BME280;52576;53.614;9.894;2023-05-25T09:38:52;102449.91;;;16.34;50.91
21781;BME280;52576;53.614;9.894;2023-05-25T09:40:55;102453.31;;;16.36;50.40
21781;BME280;52576;53.614;9.894;2023-05-25T09:43:01;102452.22;;;16.39;50.62
21781;BME280;52576;53.614;9.894;2023-05-25T09:45:05;102449.19;;;16.45;49.99
21781;BME280;52576;53.614;9.894;2023-05-25T09:47:09;102448.78;;;16.51;49.93
21781;BME280;52576;53.614;9.894;2023-05-25T09:49:15;102454.00;;;16.52;49.77
21781;BME280;52576;53.614;9.894;2023-05-25T09:51:20;102452.09;;;16.54;49.76
21781;BME280;52576;53.614;9.894;2023-05-25T09:53:23;102461.53;;;16.58;49.63
21781;BME280;52576;53.614;9.894;2023-05-25T09:55:29;102452.06;;;16.69;49.60
21781;BME280;52576;53.614;9.894;2023-05-25T09:57:52;102452.97;;;16.82;49.58
21781;BME280;52576;53.614;9.894;2023-05-25T09:59:56;102449.69;;;16.91;49.61
21781;BME280;52576;53.614;9.894;2023-05-25T10:02:00;102455.81;;;16.91;49.10
21781;BME280;52576;53.614;9.894;2023-05-25T10:04:03;102470.16;;;16.89;48.84
21781;BME280;52576;53.614;9.894;2023-05-25T10:06:07;102461.66;;;16.84;48.58
21781;BME280;52576;53.614;9.894;2023-05-25T10:08:12;102458.06;;;16.85;48.17
21781;BME280;52576;53.614;9.894;2023-05-25T10:10:16;102456.06;;;16.88;47.38
21781;BME280;52576;53.614;9.894;2023-05-25T10:12:21;102453.19;;;16.91;47.33
21781;BME280;52576;53.614;9.894;2023-05-25T10:14:27;102454.78;;;16.94;47.28
21781;BME280;52576;53.614;9.894;2023-05-25T10:16:32;102459.75;;;16.99;46.72
21781;BME280;52576;53.614;9.894;2023-05-25T10:18:40;102451.63;;;17.02;47.07
21781;BME280;52576;53.614;9.894;2023-05-25T10:20:46;102446.97;;;17.05;47.52
21781;BME280;52576;53.614;9.894;2023-05-25T10:22:55;102448.25;;;17.12;47.40
21781;BME280;52576;53.614;9.894;2023-05-25T10:25:07;102459.91;;;17.22;47.72
21781;BME280;52576;53.614;9.894;2023-05-25T10:27:17;102457.59;;;17.30;47.05
21781;BME280;52576;53.614;9.894;2023-05-25T10:29:29;102457.38;;;17.34;47.22
21781;BME280;52576;53.614;9.894;2023-05-25T10:31:34;102466.09;;;17.36;47.16
21781;BME280;52576;53.614;9.894;2023-05-25T10:33:38;102466.72;;;17.39;46.86
21781;BME280;52576;53.614;9.894;2023-05-25T10:35:42;102461.63;;;17.49;47.40
21781;BME280;52576;53.614;9.894;2023-05-25T10:38:04;102469.91;;;17.57;47.11
21781;BME280;52576;53.614;9.894;2023-05-25T10:40:10;102464.59;;;17.57;46.63
21781;BME280;52576;53.614;9.894;2023-05-25T10:42:23;102458.22;;;17.59;46.89
21781;BME280;52576;53.614;9.894;2023-05-25T10:44:28;102471.81;;;17.68;47.10
21781;BME280;52576;53.614;9.894;2023-05-25T10:46:31;102473.53;;;17.81;46.72
21781;BME280;52576;53.614;9.894;2023-05-25T10:48:36;102475.81;;;17.98;46.09
21781;BME280;52576;53.614;9.894;2023-05-25T10:50:40;102462.44;;;18.13;46.10
21781;BME280;52576;53.614;9.894;2023-05-25T10:52:43;102471.13;;;18.15;45.82
21781;BME280;52576;53.614;9.894;2023-05-25T10:54:47;102470.19;;;18.03;45.68
21781;BME280;52576;53.614;9.894;2023-05-25T10:57:11;102468.00;;;17.84;45.21